sensor_id;sensor_type;location;lat;lon;timestamp;temperature;humidity
42245;DHT22;27912;51.828;5.688;2023-03-01T00:00:27;-1.00;99.90
42245;DHT22;27912;51.828;5.688;2023-03-01T00:02:52;-1.10;99.90
42245;DHT22;27912;51.828;5.688;2023-03-01T00:05:18;-1.10;99.90
42245;DHT22;27912;51.828;5.688;2023-03-01T00:07:43;-1.10;99.90
42245;DHT22;27912;51.828;5.688;2023-03-01T00:10:09;-1.20;99.90
42245;DHT22;27912;51.828;5.688;2023-03-01T00:12:35;-1.20;99.90
42245;DHT22;27912;51.828;5.688;2023-03-01T00:15:01;-1.20;99.90
42245;DHT22;27912;51.828;5.688;2023-03-01T00:17:27;-1.20;99.90
42245;DHT22;27912;51.828;5.688;2023-03-01T00:19:53;-1.20;99.90
42245;DHT22;27912;51.828;5.688;2023-03-01T00:22:19;-1.10;99.90
42245;DHT22;27912;51.828;5.688;2023-03-01T00:24:45;-1.10;99.90
42245;DHT22;27912;51.828;5.688;2023-03-01T00:27:10;-1.10;99.90
42245;DHT22;27912;51.828;5.688;2023-03-01T00:29:36;-1.10;99.90
42245;DHT22;27912;51.828;5.688;2023-03-01T00:32:01;-1.20;99.90
42245;DHT22;27912;51.828;5.688;2023-03-01T00:34:27;-1.20;99.90
42245;DHT22;27912;51.828;5.688;2023-03-01T00:36:52;-1.30;99.90
42245;DHT22;27912;51.828;5.688;2023-03-01T00:39:18;-1.40;99.90
42245;DHT22;27912;51.828;5.688;2023-03-01T00:41:43;-1.40;99.90
42245;DHT22;27912;51.828;5.688;2023-03-01T00:44:09;-1.40;99.90
42245;DHT22;27912;51.828;5.688;2023-03-01T00:46:35;-1.50;99.90
42245;DHT22;27912;51.828;5.688;2023-03-01T00:49:01;-1.60;99.90
42245;DHT22;27912;51.828;5.688;2023-03-01T00:51:30;-1.60;99.90
42245;DHT22;27912;51.828;5.688;2023-03-01T00:53:58;-1.60;99.90
42245;DHT22;27912;51.828;5.688;2023-03-01T00:56:24;-1.70;99.90
42245;DHT22;27912;51.828;5.688;2023-03-01T00:58:49;-1.70;99.90
42245;DHT22;27912;51.828;5.688;2023-03-01T01:01:18;-1.70;99.90
42245;DHT22;27912;51.828;5.688;2023-03-01T01:06:20;-1.80;99.90
42245;DHT22;27912;51.828;5.688;2023-03-01T01:08:47;-1.90;99.90
42245;DHT22;27912;51.828;5.688;2023-03-01T01:11:13;-1.90;99.90
42245;DHT22;27912;51.828;5.688;2023-03-01T01:13:39;-1.90;99.90
42245;DHT22;27912;51.828;5.688;2023-03-01T01:16:05;-1.90;99.90
42245;DHT22;27912;51.828;5.688;2023-03-01T01:18:31;-1.80;99.90
42245;DHT22;27912;51.828;5.688;2023-03-01T01:20:56;-1.80;99.90
42245;DHT22;27912;51.828;5.688;2023-03-01T01:23:23;-1.80;99.90
42245;DHT22;27912;51.828;5.688;2023-03-01T01:25:49;-1.80;99.90
42245;DHT22;27912;51.828;5.688;2023-03-01T01:28:14;-1.80;99.90
42245;DHT22;27912;51.828;5.688;2023-03-01T01:30:40;-1.80;99.90
42245;DHT22;27912;51.828;5.688;2023-03-01T01:33:05;-1.80;99.90
42245;DHT22;27912;51.828;5.688;2023-03-01T01:35:31;-1.80;99.90
42245;DHT22;27912;51.828;5.688;2023-03-01T01:37:56;-1.80;99.90
42245;DHT22;27912;51.828;5.688;2023-03-01T01:40:22;-1.80;99.90
42245;DHT22;27912;51.828;5.688;2023-03-01T01:42:47;-1.80;99.90
42245;DHT22;27912;51.828;5.688;2023-03-01T01:45:34;-1.80;99.90
42245;DHT22;27912;51.828;5.688;2023-03-01T01:48:06;-1.70;99.90
42245;DHT22;27912;51.828;5.688;2023-03-01T01:50:33;-1.80;99.90
42245;DHT22;27912;51.828;5.688;2023-03-01T01:53:05;-1.80;99.90
42245;DHT22;27912;51.828;5.688;2023-03-01T01:55:32;-1.80;99.90
42245;DHT22;27912;51.828;5.688;2023-03-01T01:58:02;-1.80;99.90
42245;DHT22;27912;51.828;5.688;2023-03-01T02:00:30;-1.90;99.90
42245;DHT22;27912;51.828;5.688;2023-03-01T02:03:07;-1.90;99.90
42245;DHT22;27912;51.828;5.688;2023-03-01T02:05:57;-1.90;99.90
42245;DHT22;27912;51.828;5.688;2023-03-01T02:08:27;-2.00;99.90
42245;DHT22;27912;51.828;5.688;2023-03-01T02:10:54;-2.00;99.90
42245;DHT22;27912;51.828;5.688;2023-03-01T02:13:21;-2.10;99.90
42245;DHT22;27912;51.828;5.688;2023-03-01T02:15:46;-2.10;99.90
42245;DHT22;27912;51.828;5.688;2023-03-01T02:18:16;-2.10;99.90
42245;DHT22;27912;51.828;5.688;2023-03-01T02:23:30;-2.10;99.90
42245;DHT22;27912;51.828;5.688;2023-03-01T02:26:01;-2.20;99.90
42245;DHT22;27912;51.828;5.688;2023-03-01T02:28:37;-2.10;99.90
42245;DHT22;27912;51.828;5.688;2023-03-01T02:31:05;-2.20;99.90
42245;DHT22;27912;51.828;5.688;2023-03-01T02:33:50;-2.20;99.90
42245;DHT22;27912;51.828;5.688;2023-03-01T02:36:23;-2.20;99.90
42245;DHT22;27912;51.828;5.688;2023-03-01T02:38:52;-2.20;99.90
42245;DHT22;27912;51.828;5.688;2023-03-01T02:41:19;-2.20;99.90
42245;DHT22;27912;51.828;5.688;2023-03-01T02:43:46;-2.20;99.90
42245;DHT22;27912;51.828;5.688;2023-03-01T02:46:18;-2.30;99.90
42245;DHT22;27912;51.828;5.688;2023-03-01T02:48:48;-2.30;99.90
42245;DHT22;27912;51.828;5.688;2023-03-01T02:54:31;-2.40;99.90
42245;DHT22;27912;51.828;5.688;2023-03-01T02:56:59;-2.40;99.90
42245;DHT22;27912;51.828;5.688;2023-03-01T02:59:31;-2.50;99.90
42245;DHT22;27912;51.828;5.688;2023-03-01T03:02:00;-2.50;99.90
42245;DHT22;27912;51.828;5.688;2023-03-01T03:04:26;-2.50;99.90
42245;DHT22;27912;51.828;5.688;2023-03-01T03:06:51;-2.50;99.90
42245;DHT22;27912;51.828;5.688;2023-03-01T03:09:17;-2.50;99.90
42245;DHT22;27912;51.828;5.688;2023-03-01T03:11:43;-2.40;99.90
42245;DHT22;27912;51.828;5.688;2023-03-01T03:14:14;-2.40;99.90
42245;DHT22;27912;51.828;5.688;2023-03-01T03:16:42;-2.40;99.90
42245;DHT22;27912;51.828;5.688;2023-03-01T03:19:07;-2.40;99.90
42245;DHT22;27912;51.828;5.688;2023-03-01T03:21:34;-2.40;99.90
42245;DHT22;27912;51.828;5.688;2023-03-01T03:24:00;-2.40;99.90
42245;DHT22;27912;51.828;5.688;2023-03-01T03:26:25;-2.30;99.90
42245;DHT22;27912;51.828;5.688;2023-03-01T03:28:51;-2.30;99.90
42245;DHT22;27912;51.828;5.688;2023-03-01T03:31:17;-2.30;99.90
42245;DHT22;27912;51.828;5.688;2023-03-01T03:33:42;-2.30;99.90
42245;DHT22;27912;51.828;5.688;2023-03-01T03:36:08;-2.30;99.90
42245;DHT22;27912;51.828;5.688;2023-03-01T03:38:39;-2.40;99.90
42245;DHT22;27912;51.828;5.688;2023-03-01T03:41:06;-2.50;99.90
42245;DHT22;27912;51.828;5.688;2023-03-01T03:43:35;-2.60;99.90
42245;DHT22;27912;51.828;5.688;2023-03-01T03:46:01;-2.70;99.90
42245;DHT22;27912;51.828;5.688;2023-03-01T03:48:32;-2.70;99.90
42245;DHT22;27912;51.828;5.688;2023-03-01T03:50:58;-2.80;99.90
42245;DHT22;27912;51.828;5.688;2023-03-01T03:53:26;-2.80;99.90
42245;DHT22;27912;51.828;5.688;2023-03-01T03:55:53;-2.90;99.90
42245;DHT22;27912;51.828;5.688;2023-03-01T03:58:20;-3.00;99.90
42245;DHT22;27912;51.828;5.688;2023-03-01T04:00:48;-3.00;99.90
42245;DHT22;27912;51.828;5.688;2023-03-01T04:03:15;-3.00;99.90
42245;DHT22;27912;51.828;5.688;2023-03-01T04:05:41;-3.00;99.90
42245;DHT22;27912;51.828;5.688;2023-03-01T04:08:08;-3.10;99.90
42245;DHT22;27912;51.828;5.688;2023-03-01T04:10:39;-3.10;99.90
42245;DHT22;27912;51.828;5.688;2023-03-01T04:13:07;-3.10;99.90
42245;DHT22;27912;51.828;5.688;2023-03-01T04:15:32;-3.10;99.90
42245;DHT22;27912;51.828;5.688;2023-03-01T04:17:59;-3.20;99.90
42245;DHT22;27912;51.828;5.688;2023-03-01T04:20:28;-3.20;99.90
42245;DHT22;27912;51.828;5.688;2023-03-01T04:23:21;-3.20;99.90
42245;DHT22;27912;51.828;5.688;2023-03-01T04:25:54;-3.20;99.90
42245;DHT22;27912;51.828;5.688;2023-03-01T04:28:36;-3.30;99.90
42245;DHT22;27912;51.828;5.688;2023-03-01T04:31:07;-3.20;99.90
42245;DHT22;27912;51.828;5.688;2023-03-01T04:33:40;-3.20;99.90
42245;DHT22;27912;51.828;5.688;2023-03-01T04:36:07;-3.20;99.90
42245;DHT22;27912;51.828;5.688;2023-03-01T04:38:34;-3.30;99.90
42245;DHT22;27912;51.828;5.688;2023-03-01T04:41:03;-3.30;99.90
42245;DHT22;27912;51.828;5.688;2023-03-01T04:43:28;-3.30;99.90
42245;DHT22;27912;51.828;5.688;2023-03-01T04:45:54;-3.30;99.90
42245;DHT22;27912;51.828;5.688;2023-03-01T04:48:19;-3.30;99.90
42245;DHT22;27912;51.828;5.688;2023-03-01T04:50:45;-3.30;99.90
42245;DHT22;27912;51.828;5.688;2023-03-01T04:53:10;-3.30;99.90
42245;DHT22;27912;51.828;5.688;2023-03-01T04:55:36;-3.30;99.90
42245;DHT22;27912;51.828;5.688;2023-03-01T04:58:01;-3.30;99.90
42245;DHT22;27912;51.828;5.688;2023-03-01T05:00:27;-3.30;99.90
42245;DHT22;27912;51.828;5.688;2023-03-01T05:02:58;-3.30;99.90
42245;DHT22;27912;51.828;5.688;2023-03-01T05:05:28;-3.30;99.90
42245;DHT22;27912;51.828;5.688;2023-03-01T05:07:56;-3.30;99.90
42245;DHT22;27912;51.828;5.688;2023-03-01T05:10:22;-3.30;99.90
42245;DHT22;27912;51.828;5.688;2023-03-01T05:12:48;-3.30;99.90
42245;DHT22;27912;51.828;5.688;2023-03-01T05:15:14;-3.30;99.90
42245;DHT22;27912;51.828;5.688;2023-03-01T05:17:40;-3.30;99.90
42245;DHT22;27912;51.828;5.688;2023-03-01T05:20:05;-3.20;99.90
42245;DHT22;27912;51.828;5.688;2023-03-01T05:22:34;-3.30;99.90
42245;DHT22;27912;51.828;5.688;2023-03-01T05:25:00;-3.40;99.90
42245;DHT22;27912;51.828;5.688;2023-03-01T05:27:26;-3.40;99.90
42245;DHT22;27912;51.828;5.688;2023-03-01T05:29:52;-3.40;99.90
42245;DHT22;27912;51.828;5.688;2023-03-01T05:32:17;-3.40;99.90
42245;DHT22;27912;51.828;5.688;2023-03-01T05:34:43;-3.40;99.90
42245;DHT22;27912;51.828;5.688;2023-03-01T05:37:09;-3.40;99.90
42245;DHT22;27912;51.828;5.688;2023-03-01T05:39:35;-3.40;99.90
42245;DHT22;27912;51.828;5.688;2023-03-01T05:42:01;-3.30;99.90
42245;DHT22;27912;51.828;5.688;2023-03-01T05:44:28;-3.30;99.90
42245;DHT22;27912;51.828;5.688;2023-03-01T05:46:54;-3.30;99.90
42245;DHT22;27912;51.828;5.688;2023-03-01T05:49:20;-3.30;99.90
42245;DHT22;27912;51.828;5.688;2023-03-01T05:51:50;-3.40;99.90
42245;DHT22;27912;51.828;5.688;2023-03-01T05:54:16;-3.40;99.90
42245;DHT22;27912;51.828;5.688;2023-03-01T05:56:42;-3.40;99.90
42245;DHT22;27912;51.828;5.688;2023-03-01T05:59:07;-3.40;99.90
42245;DHT22;27912;51.828;5.688;2023-03-01T06:01:33;-3.40;99.90
42245;DHT22;27912;51.828;5.688;2023-03-01T06:03:59;-3.50;99.90
42245;DHT22;27912;51.828;5.688;2023-03-01T06:06:25;-3.50;99.90
42245;DHT22;27912;51.828;5.688;2023-03-01T06:08:52;-3.50;99.90
42245;DHT22;27912;51.828;5.688;2023-03-01T06:11:18;-3.60;99.90
42245;DHT22;27912;51.828;5.688;2023-03-01T06:13:44;-3.60;99.90
42245;DHT22;27912;51.828;5.688;2023-03-01T06:16:10;-3.60;99.90
42245;DHT22;27912;51.828;5.688;2023-03-01T06:18:36;-3.60;99.90
42245;DHT22;27912;51.828;5.688;2023-03-01T06:21:02;-3.60;99.90
42245;DHT22;27912;51.828;5.688;2023-03-01T06:23:28;-3.60;99.90
42245;DHT22;27912;51.828;5.688;2023-03-01T06:25:54;-3.50;99.90
42245;DHT22;27912;51.828;5.688;2023-03-01T06:28:19;-3.60;99.90
42245;DHT22;27912;51.828;5.688;2023-03-01T06:30:45;-3.60;99.90
42245;DHT22;27912;51.828;5.688;2023-03-01T06:33:11;-3.60;99.90
42245;DHT22;27912;51.828;5.688;2023-03-01T06:35:36;-3.50;99.90
42245;DHT22;27912;51.828;5.688;2023-03-01T06:38:03;-3.50;99.90
42245;DHT22;27912;51.828;5.688;2023-03-01T06:40:30;-3.40;99.90
42245;DHT22;27912;51.828;5.688;2023-03-01T06:42:57;-3.40;99.90
42245;DHT22;27912;51.828;5.688;2023-03-01T06:45:23;-3.30;99.90
42245;DHT22;27912;51.828;5.688;2023-03-01T06:47:49;-3.30;99.90
42245;DHT22;27912;51.828;5.688;2023-03-01T06:50:15;-3.20;99.90
42245;DHT22;27912;51.828;5.688;2023-03-01T06:52:41;-3.20;99.90
42245;DHT22;27912;51.828;5.688;2023-03-01T06:55:09;-3.10;99.90
42245;DHT22;27912;51.828;5.688;2023-03-01T06:57:34;-3.00;99.90
42245;DHT22;27912;51.828;5.688;2023-03-01T07:00:00;-2.90;99.90
42245;DHT22;27912;51.828;5.688;2023-03-01T07:02:25;-2.80;99.90
42245;DHT22;27912;51.828;5.688;2023-03-01T07:04:51;-2.70;99.90
42245;DHT22;27912;51.828;5.688;2023-03-01T07:07:18;-2.70;99.90
42245;DHT22;27912;51.828;5.688;2023-03-01T07:09:45;-2.50;99.90
42245;DHT22;27912;51.828;5.688;2023-03-01T07:12:10;-2.40;99.90
42245;DHT22;27912;51.828;5.688;2023-03-01T07:14:36;-2.30;99.90
42245;DHT22;27912;51.828;5.688;2023-03-01T07:17:02;-2.20;99.90
42245;DHT22;27912;51.828;5.688;2023-03-01T07:19:27;-2.00;99.90
42245;DHT22;27912;51.828;5.688;2023-03-01T07:21:53;-1.90;99.90
42245;DHT22;27912;51.828;5.688;2023-03-01T07:24:20;-1.70;99.90
42245;DHT22;27912;51.828;5.688;2023-03-01T07:26:50;-1.50;99.90
42245;DHT22;27912;51.828;5.688;2023-03-01T07:29:15;-1.50;99.90
42245;DHT22;27912;51.828;5.688;2023-03-01T07:31:41;-1.30;99.90
42245;DHT22;27912;51.828;5.688;2023-03-01T07:34:07;-1.20;99.90
42245;DHT22;27912;51.828;5.688;2023-03-01T07:36:32;-1.10;99.90
42245;DHT22;27912;51.828;5.688;2023-03-01T07:38:58;-1.00;99.90
42245;DHT22;27912;51.828;5.688;2023-03-01T07:41:23;-0.90;99.90
42245;DHT22;27912;51.828;5.688;2023-03-01T07:43:49;-0.80;99.90
42245;DHT22;27912;51.828;5.688;2023-03-01T07:46:14;-0.70;99.90
42245;DHT22;27912;51.828;5.688;2023-03-01T07:48:40;-0.60;99.90
42245;DHT22;27912;51.828;5.688;2023-03-01T07:51:07;-0.50;99.90
42245;DHT22;27912;51.828;5.688;2023-03-01T07:53:33;-0.30;99.90
42245;DHT22;27912;51.828;5.688;2023-03-01T07:56:10;-0.20;99.90
42245;DHT22;27912;51.828;5.688;2023-03-01T07:58:37;-0.10;99.90
42245;DHT22;27912;51.828;5.688;2023-03-01T08:01:08;0.00;99.90
42245;DHT22;27912;51.828;5.688;2023-03-01T08:03:34;0.10;99.90
42245;DHT22;27912;51.828;5.688;2023-03-01T08:06:01;0.20;99.90
42245;DHT22;27912;51.828;5.688;2023-03-01T08:08:27;0.30;99.90
42245;DHT22;27912;51.828;5.688;2023-03-01T08:10:55;0.40;99.90
42245;DHT22;27912;51.828;5.688;2023-03-01T08:13:21;0.40;99.90
42245;DHT22;27912;51.828;5.688;2023-03-01T08:15:48;0.50;99.90
42245;DHT22;27912;51.828;5.688;2023-03-01T08:18:16;0.50;99.90
42245;DHT22;27912;51.828;5.688;2023-03-01T08:20:42;0.60;99.90
42245;DHT22;27912;51.828;5.688;2023-03-01T08:23:08;0.70;99.90
42245;DHT22;27912;51.828;5.688;2023-03-01T08:25:34;0.70;99.90
42245;DHT22;27912;51.828;5.688;2023-03-01T08:27:59;0.80;99.90
42245;DHT22;27912;51.828;5.688;2023-03-01T08:30:25;0.90;99.90
42245;DHT22;27912;51.828;5.688;2023-03-01T08:32:51;0.90;99.90
42245;DHT22;27912;51.828;5.688;2023-03-01T08:35:17;1.00;99.90
42245;DHT22;27912;51.828;5.688;2023-03-01T08:37:42;1.10;99.90
42245;DHT22;27912;51.828;5.688;2023-03-01T08:40:09;1.20;99.90
42245;DHT22;27912;51.828;5.688;2023-03-01T08:42:36;1.30;99.90
42245;DHT22;27912;51.828;5.688;2023-03-01T08:45:05;1.40;99.90
42245;DHT22;27912;51.828;5.688;2023-03-01T08:47:31;1.50;99.90
42245;DHT22;27912;51.828;5.688;2023-03-01T08:49:56;1.60;99.90
42245;DHT22;27912;51.828;5.688;2023-03-01T08:52:22;1.70;99.90
42245;DHT22;27912;51.828;5.688;2023-03-01T08:54:48;1.80;99.90
42245;DHT22;27912;51.828;5.688;2023-03-01T08:57:14;1.90;99.90
42245;DHT22;27912;51.828;5.688;2023-03-01T08:59:39;2.00;99.90
42245;DHT22;27912;51.828;5.688;2023-03-01T09:02:15;2.10;99.90
42245;DHT22;27912;51.828;5.688;2023-03-01T09:04:41;2.20;99.90
42245;DHT22;27912;51.828;5.688;2023-03-01T09:07:07;2.30;99.90
42245;DHT22;27912;51.828;5.688;2023-03-01T09:09:33;2.40;99.90
42245;DHT22;27912;51.828;5.688;2023-03-01T09:11:59;2.40;99.90
42245;DHT22;27912;51.828;5.688;2023-03-01T09:14:24;2.50;99.90
42245;DHT22;27912;51.828;5.688;2023-03-01T09:16:50;2.60;99.90
42245;DHT22;27912;51.828;5.688;2023-03-01T09:19:16;2.70;99.90
42245;DHT22;27912;51.828;5.688;2023-03-01T09:21:42;2.80;99.90
42245;DHT22;27912;51.828;5.688;2023-03-01T09:24:18;2.90;99.90
42245;DHT22;27912;51.828;5.688;2023-03-01T09:26:43;3.00;99.90
42245;DHT22;27912;51.828;5.688;2023-03-01T09:29:11;3.10;99.90
42245;DHT22;27912;51.828;5.688;2023-03-01T09:31:37;3.20;99.90
42245;DHT22;27912;51.828;5.688;2023-03-01T09:34:03;3.30;99.90
42245;DHT22;27912;51.828;5.688;2023-03-01T09:36:28;3.30;99.90
42245;DHT22;27912;51.828;5.688;2023-03-01T09:38:54;3.40;99.90
42245;DHT22;27912;51.828;5.688;2023-03-01T09:44:23;3.50;99.90
42245;DHT22;27912;51.828;5.688;2023-03-01T09:46:51;3.60;99.90
42245;DHT22;27912;51.828;5.688;2023-03-01T09:49:19;3.70;99.90
42245;DHT22;27912;51.828;5.688;2023-03-01T09:54:20;3.80;99.90
42245;DHT22;27912;51.828;5.688;2023-03-01T09:57:05;3.90;99.90
42245;DHT22;27912;51.828;5.688;2023-03-01T10:02:45;4.10;99.90
42245;DHT22;27912;51.828;5.688;2023-03-01T10:10:47;4.20;99.90
42245;DHT22;27912;51.828;5.688;2023-03-01T10:13:19;4.20;99.90
42245;DHT22;27912;51.828;5.688;2023-03-01T10:16:08;4.30;99.90
42245;DHT22;27912;51.828;5.688;2023-03-01T10:18:35;4.40;99.80
42245;DHT22;27912;51.828;5.688;2023-03-01T10:21:13;4.40;98.90
42245;DHT22;27912;51.828;5.688;2023-03-01T10:23:39;4.40;97.40
42245;DHT22;27912;51.828;5.688;2023-03-01T10:29:07;4.40;97.10
42245;DHT22;27912;51.828;5.688;2023-03-01T10:31:50;4.50;97.20
42245;DHT22;27912;51.828;5.688;2023-03-01T10:34:25;4.60;96.80
42245;DHT22;27912;51.828;5.688;2023-03-01T10:36:56;4.60;96.40
42245;DHT22;27912;51.828;5.688;2023-03-01T10:39:24;4.70;96.20
42245;DHT22;27912;51.828;5.688;2023-03-01T10:42:03;4.70;96.30
42245;DHT22;27912;51.828;5.688;2023-03-01T10:47:04;4.80;95.20
42245;DHT22;27912;51.828;5.688;2023-03-01T10:49:30;4.80;94.70
42245;DHT22;27912;51.828;5.688;2023-03-01T10:52:15;4.70;94.30
42245;DHT22;27912;51.828;5.688;2023-03-01T10:54:55;4.70;94.50
42245;DHT22;27912;51.828;5.688;2023-03-01T10:57:34;4.80;94.50
42245;DHT22;27912;51.828;5.688;2023-03-01T11:00:23;4.90;94.40
42245;DHT22;27912;51.828;5.688;2023-03-01T11:03:00;4.90;93.70
42245;DHT22;27912;51.828;5.688;2023-03-01T11:05:26;4.90;93.50
42245;DHT22;27912;51.828;5.688;2023-03-01T11:07:57;4.90;93.60
42245;DHT22;27912;51.828;5.688;2023-03-01T11:10:31;5.00;93.60
42245;DHT22;27912;51.828;5.688;2023-03-01T11:13:18;5.10;93.20
42245;DHT22;27912;51.828;5.688;2023-03-01T11:16:06;5.10;92.90
42245;DHT22;27912;51.828;5.688;2023-03-01T11:18:32;5.10;93.10
42245;DHT22;27912;51.828;5.688;2023-03-01T11:20:59;5.20;92.50
42245;DHT22;27912;51.828;5.688;2023-03-01T11:23:29;5.20;92.70
42245;DHT22;27912;51.828;5.688;2023-03-01T11:25:58;5.30;92.80
42245;DHT22;27912;51.828;5.688;2023-03-01T11:28:26;5.40;92.30
42245;DHT22;27912;51.828;5.688;2023-03-01T11:31:07;5.50;91.40
42245;DHT22;27912;51.828;5.688;2023-03-01T11:33:55;5.40;91.20
42245;DHT22;27912;51.828;5.688;2023-03-01T11:41:51;5.70;91.10
42245;DHT22;27912;51.828;5.688;2023-03-01T11:44:23;5.70;91.40
42245;DHT22;27912;51.828;5.688;2023-03-01T11:52:31;5.90;90.50
42245;DHT22;27912;51.828;5.688;2023-03-01T12:03:02;6.10;89.60
42245;DHT22;27912;51.828;5.688;2023-03-01T12:05:46;6.10;88.00
42245;DHT22;27912;51.828;5.688;2023-03-01T12:22:32;6.00;83.70
42245;DHT22;27912;51.828;5.688;2023-03-01T12:25:13;6.10;84.00
42245;DHT22;27912;51.828;5.688;2023-03-01T12:30:53;6.30;84.30
42245;DHT22;27912;51.828;5.688;2023-03-01T12:36:39;6.40;84.10
42245;DHT22;27912;51.828;5.688;2023-03-01T12:42:02;6.40;83.00
42245;DHT22;27912;51.828;5.688;2023-03-01T12:45:13;6.40;81.90
42245;DHT22;27912;51.828;5.688;2023-03-01T12:51:11;6.40;80.70
42245;DHT22;27912;51.828;5.688;2023-03-01T12:53:42;6.40;81.40
42245;DHT22;27912;51.828;5.688;2023-03-01T12:56:12;6.50;81.60
42245;DHT22;27912;51.828;5.688;2023-03-01T13:02:21;6.60;81.90
42245;DHT22;27912;51.828;5.688;2023-03-01T13:05:06;6.70;80.90
42245;DHT22;27912;51.828;5.688;2023-03-01T13:07:41;6.70;80.70
42245;DHT22;27912;51.828;5.688;2023-03-01T13:10:47;6.70;79.60
42245;DHT22;27912;51.828;5.688;2023-03-01T13:13:22;6.80;79.90
42245;DHT22;27912;51.828;5.688;2023-03-01T13:15:49;6.80;78.90
42245;DHT22;27912;51.828;5.688;2023-03-01T13:31:02;6.90;76.50
42245;DHT22;27912;51.828;5.688;2023-03-01T13:35:55;6.90;75.30
42245;DHT22;27912;51.828;5.688;2023-03-01T13:41:07;6.90;75.60
42245;DHT22;27912;51.828;5.688;2023-03-01T13:43:35;6.90;76.20
42245;DHT22;27912;51.828;5.688;2023-03-01T13:46:11;7.00;75.90
42245;DHT22;27912;51.828;5.688;2023-03-01T13:48:40;7.10;75.80
42245;DHT22;27912;51.828;5.688;2023-03-01T13:51:10;7.10;75.20
42245;DHT22;27912;51.828;5.688;2023-03-01T13:53:40;7.20;75.30
42245;DHT22;27912;51.828;5.688;2023-03-01T13:56:29;7.20;74.60
42245;DHT22;27912;51.828;5.688;2023-03-01T13:59:02;7.20;75.40
42245;DHT22;27912;51.828;5.688;2023-03-01T14:01:34;7.20;74.70
42245;DHT22;27912;51.828;5.688;2023-03-01T14:04:01;7.30;74.90
42245;DHT22;27912;51.828;5.688;2023-03-01T14:06:30;7.30;74.80
42245;DHT22;27912;51.828;5.688;2023-03-01T14:09:17;7.30;74.80
42245;DHT22;27912;51.828;5.688;2023-03-01T14:19:35;7.40;73.90
42245;DHT22;27912;51.828;5.688;2023-03-01T14:22:22;7.40;73.80
42245;DHT22;27912;51.828;5.688;2023-03-01T14:24:59;7.40;74.00
42245;DHT22;27912;51.828;5.688;2023-03-01T14:27:35;7.40;73.80
42245;DHT22;27912;51.828;5.688;2023-03-01T14:30:09;7.40;73.70
42245;DHT22;27912;51.828;5.688;2023-03-01T14:32:37;7.50;73.50
42245;DHT22;27912;51.828;5.688;2023-03-01T14:35:18;7.40;71.70
42245;DHT22;27912;51.828;5.688;2023-03-01T14:37:44;7.40;70.90
42245;DHT22;27912;51.828;5.688;2023-03-01T14:40:24;7.40;71.40
42245;DHT22;27912;51.828;5.688;2023-03-01T14:42:51;7.50;71.20
42245;DHT22;27912;51.828;5.688;2023-03-01T14:45:17;7.40;70.40
42245;DHT22;27912;51.828;5.688;2023-03-01T14:47:44;7.40;71.30
42245;DHT22;27912;51.828;5.688;2023-03-01T14:50:24;7.40;70.00
42245;DHT22;27912;51.828;5.688;2023-03-01T14:52:52;7.50;69.90
42245;DHT22;27912;51.828;5.688;2023-03-01T14:55:28;7.40;70.20
42245;DHT22;27912;51.828;5.688;2023-03-01T14:57:56;7.50;71.00
42245;DHT22;27912;51.828;5.688;2023-03-01T15:00:27;7.60;71.00
42245;DHT22;27912;51.828;5.688;2023-03-01T15:02:56;7.70;70.20
42245;DHT22;27912;51.828;5.688;2023-03-01T15:05:33;7.70;70.30
42245;DHT22;27912;51.828;5.688;2023-03-01T15:08:00;7.60;69.10
42245;DHT22;27912;51.828;5.688;2023-03-01T15:10:30;7.60;68.50
42245;DHT22;27912;51.828;5.688;2023-03-01T15:12:58;7.50;68.50
42245;DHT22;27912;51.828;5.688;2023-03-01T15:15:42;7.50;69.40
42245;DHT22;27912;51.828;5.688;2023-03-01T15:18:13;7.50;68.90
42245;DHT22;27912;51.828;5.688;2023-03-01T15:20:39;7.50;69.00
42245;DHT22;27912;51.828;5.688;2023-03-01T15:23:05;7.50;69.40
42245;DHT22;27912;51.828;5.688;2023-03-01T15:25:32;7.50;69.90
42245;DHT22;27912;51.828;5.688;2023-03-01T15:27:59;7.60;69.80
42245;DHT22;27912;51.828;5.688;2023-03-01T15:30:27;7.60;69.40
42245;DHT22;27912;51.828;5.688;2023-03-01T15:33:17;7.50;69.00
42245;DHT22;27912;51.828;5.688;2023-03-01T15:35:49;7.60;69.50
42245;DHT22;27912;51.828;5.688;2023-03-01T15:40:58;7.60;69.90
42245;DHT22;27912;51.828;5.688;2023-03-01T15:43:44;7.60;70.00
42245;DHT22;27912;51.828;5.688;2023-03-01T15:46:30;7.60;69.70
42245;DHT22;27912;51.828;5.688;2023-03-01T15:48:59;7.50;69.50
42245;DHT22;27912;51.828;5.688;2023-03-01T15:51:34;7.50;69.90
42245;DHT22;27912;51.828;5.688;2023-03-01T15:54:04;7.40;69.70
42245;DHT22;27912;51.828;5.688;2023-03-01T15:56:30;7.30;69.60
42245;DHT22;27912;51.828;5.688;2023-03-01T15:59:00;7.30;70.10
42245;DHT22;27912;51.828;5.688;2023-03-01T16:01:27;7.20;70.20
42245;DHT22;27912;51.828;5.688;2023-03-01T16:03:53;7.10;70.10
42245;DHT22;27912;51.828;5.688;2023-03-01T16:06:19;7.00;71.00
42245;DHT22;27912;51.828;5.688;2023-03-01T16:08:45;7.00;70.70
42245;DHT22;27912;51.828;5.688;2023-03-01T16:11:15;7.00;70.80
42245;DHT22;27912;51.828;5.688;2023-03-01T16:13:41;6.90;71.10
42245;DHT22;27912;51.828;5.688;2023-03-01T16:16:09;6.80;71.20
42245;DHT22;27912;51.828;5.688;2023-03-01T16:18:38;6.70;71.30
42245;DHT22;27912;51.828;5.688;2023-03-01T16:21:04;6.60;71.20
42245;DHT22;27912;51.828;5.688;2023-03-01T16:23:30;6.60;70.40
42245;DHT22;27912;51.828;5.688;2023-03-01T16:25:59;6.50;70.40
42245;DHT22;27912;51.828;5.688;2023-03-01T16:28:24;6.50;70.80
42245;DHT22;27912;51.828;5.688;2023-03-01T16:30:51;6.40;71.00
42245;DHT22;27912;51.828;5.688;2023-03-01T16:33:17;6.30;71.10
42245;DHT22;27912;51.828;5.688;2023-03-01T16:35:43;6.30;71.30
42245;DHT22;27912;51.828;5.688;2023-03-01T16:38:10;6.20;71.30
42245;DHT22;27912;51.828;5.688;2023-03-01T16:40:35;6.20;71.30
42245;DHT22;27912;51.828;5.688;2023-03-01T16:43:01;6.10;71.50
42245;DHT22;27912;51.828;5.688;2023-03-01T16:45:35;6.10;71.80
42245;DHT22;27912;51.828;5.688;2023-03-01T16:48:02;6.00;72.10
42245;DHT22;27912;51.828;5.688;2023-03-01T16:50:28;6.00;72.40
42245;DHT22;27912;51.828;5.688;2023-03-01T16:52:54;5.90;72.80
42245;DHT22;27912;51.828;5.688;2023-03-01T16:55:19;5.90;73.30
42245;DHT22;27912;51.828;5.688;2023-03-01T16:57:45;5.90;73.70
42245;DHT22;27912;51.828;5.688;2023-03-01T17:00:11;5.80;73.90
42245;DHT22;27912;51.828;5.688;2023-03-01T17:02:39;5.80;74.00
42245;DHT22;27912;51.828;5.688;2023-03-01T17:05:05;5.80;74.20
42245;DHT22;27912;51.828;5.688;2023-03-01T17:07:32;5.80;74.50
42245;DHT22;27912;51.828;5.688;2023-03-01T17:09:59;5.80;74.60
42245;DHT22;27912;51.828;5.688;2023-03-01T17:12:25;5.60;75.10
42245;DHT22;27912;51.828;5.688;2023-03-01T17:14:50;5.60;74.80
42245;DHT22;27912;51.828;5.688;2023-03-01T17:17:16;5.60;75.10
42245;DHT22;27912;51.828;5.688;2023-03-01T17:19:41;5.50;75.30
42245;DHT22;27912;51.828;5.688;2023-03-01T17:22:11;5.40;75.80
42245;DHT22;27912;51.828;5.688;2023-03-01T17:24:42;5.40;76.00
42245;DHT22;27912;51.828;5.688;2023-03-01T17:27:08;5.30;76.30
42245;DHT22;27912;51.828;5.688;2023-03-01T17:29:34;5.20;76.60
42245;DHT22;27912;51.828;5.688;2023-03-01T17:32:00;5.10;76.80
42245;DHT22;27912;51.828;5.688;2023-03-01T17:34:26;5.10;77.10